La Crosse, Washington
Current Conditions -  °F | °C
As of 6:23 AM on Friday 19 Dec 2014 (Local Time) from KPUW Reporting Station
Light Rain Light Rain  
Wind Chill: 36°   Ceiling: 3000
Heat Index: 42°   Visibility: 8mi
Dew Point: 37°   Wind: 12mph
Humidity: 82%   Direction: 160°SSE
Pressure: 29.91"   Gusts: NA
Location:  46.81°N, 117.88°W
Report Text: KPUW 191423Z AUTO 16010KT 8SM -RA OVC030 06/03 A2991 RMK AO2 P0003 T00560028
Loading
Personal Weather Stations






























Interactive Weather Map New forecast layout! Learn more

10-Day Weather Forecast

Advertisements
Track Severe Weather on mobile